Time;durP1;ratioP1;P1;durP2;ratioP2;P2;SDS_P1;SDS_P2;PMS_P1;PMS_P2;Temp;Humidity;BMP_temperature;BMP_pressure;BME280_temperature;BME280_humidity;BME280_pressure;Samples;Min_cycle;Max_cycle;Signal;HPM_P1;HPM_P2
2021/09/11 00:01:11;;;;;;;3.37;3.07;;;;;;;21.38;72.59;100522.83;;;;-54
2021/09/11 00:04:11;;;;;;;3.11;2.83;;;;;;;21.38;72.63;100524.46;;;;-54
2021/09/11 00:07:11;;;;;;;3.39;2.93;;;;;;;21.37;72.56;100523.41;;;;-54
2021/09/11 00:10:11;;;;;;;3.36;3.06;;;;;;;21.37;72.60;100523.73;;;;-54
2021/09/11 00:13:11;;;;;;;3.10;2.80;;;;;;;21.37;72.64;100521.76;;;;-54
2021/09/11 00:16:11;;;;;;;3.26;2.96;;;;;;;21.37;72.62;100521.27;;;;-54
2021/09/11 00:19:11;;;;;;;3.26;2.96;;;;;;;21.36;72.62;100521.60;;;;-54
2021/09/11 00:22:11;;;;;;;3.33;2.83;;;;;;;21.36;72.62;100521.85;;;;-54
2021/09/11 00:25:11;;;;;;;3.35;3.04;;;;;;;21.35;72.62;100522.11;;;;-55
2021/09/11 00:28:11;;;;;;;3.16;2.89;;;;;;;21.35;72.63;100520.20;;;;-54
2021/09/11 00:31:11;;;;;;;3.21;2.87;;;;;;;21.34;72.66;100523.07;;;;-54
2021/09/11 00:34:11;;;;;;;3.45;3.11;;;;;;;21.35;72.66;100524.86;;;;-54
2021/09/11 00:37:11;;;;;;;3.41;3.11;;;;;;;21.34;72.69;100522.19;;;;-55
2021/09/11 00:40:11;;;;;;;3.09;2.89;;;;;;;21.33;72.68;100522.58;;;;-54
2021/09/11 00:43:11;;;;;;;3.17;2.87;;;;;;;21.32;72.69;100519.32;;;;-52
2021/09/11 00:46:11;;;;;;;3.17;2.97;;;;;;;21.32;72.71;100521.77;;;;-53
2021/09/11 00:49:11;;;;;;;3.16;2.80;;;;;;;21.32;72.70;100526.02;;;;-53
2021/09/11 00:52:11;;;;;;;3.14;2.87;;;;;;;21.32;72.73;100526.09;;;;-53
2021/09/11 00:55:11;;;;;;;3.16;2.86;;;;;;;21.31;72.76;100521.45;;;;-58
2021/09/11 00:58:11;;;;;;;2.97;2.77;;;;;;;21.31;72.76;100524.53;;;;-58
2021/09/11 01:01:11;;;;;;;3.23;2.99;;;;;;;21.30;72.76;100524.86;;;;-58
2021/09/11 01:04:11;;;;;;;3.53;2.92;;;;;;;21.29;72.75;100527.98;;;;-58
2021/09/11 01:07:11;;;;;;;2.78;2.58;;;;;;;21.29;72.71;100528.38;;;;-58
2021/09/11 01:10:11;;;;;;;3.71;3.00;;;;;;;21.30;72.75;100531.14;;;;-53
2021/09/11 01:13:11;;;;;;;2.87;2.67;;;;;;;21.29;72.76;100533.11;;;;-53
2021/09/11 01:16:11;;;;;;;3.07;2.87;;;;;;;21.29;72.73;100535.13;;;;-53
2021/09/11 01:19:11;;;;;;;3.00;2.80;;;;;;;21.28;72.78;100537.34;;;;-53
2021/09/11 01:22:11;;;;;;;3.34;2.86;;;;;;;21.27;72.80;100536.62;;;;-58
2021/09/11 01:25:11;;;;;;;2.95;2.75;;;;;;;21.27;72.81;100540.37;;;;-58
2021/09/11 01:28:11;;;;;;;3.23;2.93;;;;;;;21.27;72.80;100538.22;;;;-58
2021/09/11 01:31:11;;;;;;;3.02;2.82;;;;;;;21.26;72.76;100537.74;;;;-58
2021/09/11 01:34:11;;;;;;;3.05;2.84;;;;;;;21.26;72.82;100541.24;;;;-58
2021/09/11 01:37:11;;;;;;;3.02;2.82;;;;;;;21.26;72.82;100539.78;;;;-53
2021/09/11 01:40:11;;;;;;;2.98;2.73;;;;;;;21.25;72.77;100542.89;;;;-52
2021/09/11 01:43:11;;;;;;;3.01;2.81;;;;;;;21.26;72.81;100546.72;;;;-52
2021/09/11 01:46:11;;;;;;;3.20;2.90;;;;;;;21.25;72.83;100543.30;;;;-53
2021/09/11 01:49:11;;;;;;;3.09;2.80;;;;;;;21.25;72.91;100545.09;;;;-53
2021/09/11 01:52:11;;;;;;;2.90;2.70;;;;;;;21.25;72.88;100545.56;;;;-58
2021/09/11 01:55:11;;;;;;;3.11;2.80;;;;;;;21.24;72.89;100543.20;;;;-58
2021/09/11 01:58:11;;;;;;;3.23;2.72;;;;;;;21.24;72.86;100541.98;;;;-58
2021/09/11 02:01:11;;;;;;;3.21;2.91;;;;;;;21.23;72.84;100539.47;;;;-58
2021/09/11 02:04:11;;;;;;;2.75;2.55;;;;;;;21.23;72.85;100543.30;;;;-58
2021/09/11 02:07:11;;;;;;;2.80;2.60;;;;;;;21.23;72.86;100550.64;;;;-58
2021/09/11 02:10:11;;;;;;;2.99;2.79;;;;;;;21.23;72.87;100547.35;;;;-58
2021/09/11 02:13:11;;;;;;;2.85;2.61;;;;;;;21.23;72.88;100550.61;;;;-53
2021/09/11 02:16:11;;;;;;;2.97;2.77;;;;;;;21.22;72.86;100544.59;;;;-53
2021/09/11 02:19:11;;;;;;;2.77;2.57;;;;;;;21.22;72.88;100543.61;;;;-54
2021/09/11 02:22:11;;;;;;;2.81;2.61;;;;;;;21.22;72.92;100543.29;;;;-54
2021/09/11 02:25:11;;;;;;;2.82;2.62;;;;;;;21.22;72.83;100543.78;;;;-54
2021/09/11 02:28:11;;;;;;;3.06;2.80;;;;;;;21.22;72.85;100547.86;;;;-55
2021/09/11 02:31:11;;;;;;;2.89;2.69;;;;;;;21.21;72.85;100546.48;;;;-55
2021/09/11 02:34:11;;;;;;;2.86;2.66;;;;;;;21.22;72.85;100549.65;;;;-54
2021/09/11 02:37:11;;;;;;;2.85;2.65;;;;;;;21.20;72.86;100549.95;;;;-54
2021/09/11 02:40:11;;;;;;;2.71;2.51;;;;;;;21.20;72.89;100553.05;;;;-54
2021/09/11 02:43:11;;;;;;;3.03;2.71;;;;;;;21.20;72.86;100555.02;;;;-54
2021/09/11 02:46:11;;;;;;;4.49;2.81;;;;;;;21.20;72.89;100555.42;;;;-54
2021/09/11 02:49:11;;;;;;;2.67;2.43;;;;;;;21.20;72.94;100551.19;;;;-52
2021/09/11 02:52:11;;;;;;;2.79;2.59;;;;;;;21.20;72.86;100553.15;;;;-52
2021/09/11 02:55:11;;;;;;;2.99;2.75;;;;;;;21.19;72.86;100552.02;;;;-52
2021/09/11 02:58:11;;;;;;;2.75;2.55;;;;;;;21.18;72.84;100549.14;;;;-54
2021/09/11 03:01:11;;;;;;;3.20;2.82;;;;;;;21.19;72.88;100556.17;;;;-58
2021/09/11 03:04:11;;;;;;;3.11;2.80;;;;;;;21.19;72.92;100550.23;;;;-57
2021/09/11 03:07:11;;;;;;;2.93;2.73;;;;;;;21.19;72.92;100551.61;;;;-58
2021/09/11 03:10:11;;;;;;;2.69;2.49;;;;;;;21.18;72.89;100546.38;;;;-58
2021/09/11 03:13:11;;;;;;;2.81;2.61;;;;;;;21.18;72.91;100538.72;;;;-58
2021/09/11 03:16:11;;;;;;;2.85;2.65;;;;;;;21.18;72.84;100538.95;;;;-53
2021/09/11 03:19:11;;;;;;;2.75;2.55;;;;;;;21.18;72.89;100538.97;;;;-53
2021/09/11 03:22:11;;;;;;;2.66;2.46;;;;;;;21.17;72.94;100537.99;;;;-53
2021/09/11 03:25:11;;;;;;;2.82;2.62;;;;;;;21.17;72.93;100539.22;;;;-55
2021/09/11 03:28:11;;;;;;;2.82;2.56;;;;;;;21.17;72.90;100543.53;;;;-54
2021/09/11 03:31:11;;;;;;;2.64;2.42;;;;;;;21.17;72.87;100544.02;;;;-54
2021/09/11 03:34:11;;;;;;;2.81;2.61;;;;;;;21.16;72.88;100549.30;;;;-54
2021/09/11 03:37:10;;;;;;;3.29;2.75;;;;;;;21.16;72.90;100552.56;;;;-54
2021/09/11 03:40:11;;;;;;;2.93;2.71;;;;;;;21.17;72.94;100556.25;;;;-54
2021/09/11 03:43:11;;;;;;;2.86;2.66;;;;;;;21.15;72.96;100549.56;;;;-58
2021/09/11 03:46:11;;;;;;;2.93;2.70;;;;;;;21.15;73.00;100552.34;;;;-58
2021/09/11 03:49:11;;;;;;;2.71;2.51;;;;;;;21.16;72.93;100550.78;;;;-58
2021/09/11 03:52:11;;;;;;;2.76;2.56;;;;;;;21.15;72.90;100547.61;;;;-58
2021/09/11 03:55:11;;;;;;;2.77;2.57;;;;;;;21.15;72.98;100550.80;;;;-57
2021/09/11 03:58:13;;;;;;;2.85;2.65;;;;;;;21.14;72.95;100556.80;;;;-58
2021/09/11 04:01:11;;;;;;;2.78;2.58;;;;;;;21.14;72.92;100553.70;;;;-58
2021/09/11 04:04:11;;;;;;;2.79;2.59;;;;;;;21.14;72.99;100550.69;;;;-58
2021/09/11 04:07:10;;;;;;;2.88;2.56;;;;;;;21.14;72.90;100556.64;;;;-58
2021/09/11 04:10:11;;;;;;;2.88;2.68;;;;;;;21.14;72.96;100553.30;;;;-58
2021/09/11 04:13:11;;;;;;;2.81;2.61;;;;;;;21.13;72.97;100552.58;;;;-58
2021/09/11 04:16:11;;;;;;;2.88;2.68;;;;;;;21.14;72.93;100557.78;;;;-52
2021/09/11 04:19:11;;;;;;;3.11;2.59;;;;;;;21.14;72.94;100559.41;;;;-53
2021/09/11 04:22:10;;;;;;;2.92;2.72;;;;;;;21.13;72.93;100564.97;;;;-52
2021/09/11 04:25:11;;;;;;;2.57;2.37;;;;;;;21.13;72.92;100562.92;;;;-53
2021/09/11 04:28:11;;;;;;;2.75;2.55;;;;;;;21.13;72.90;100558.86;;;;-52
2021/09/11 04:31:11;;;;;;;2.71;2.51;;;;;;;21.13;72.96;100563.27;;;;-52
2021/09/11 04:34:11;;;;;;;2.85;2.65;;;;;;;21.13;72.89;100565.63;;;;-54
2021/09/11 04:37:11;;;;;;;2.84;2.61;;;;;;;21.12;72.91;100561.94;;;;-52
2021/09/11 04:40:11;;;;;;;2.80;2.60;;;;;;;21.12;72.98;100566.26;;;;-52
2021/09/11 04:43:11;;;;;;;2.62;2.42;;;;;;;21.12;72.93;100567.06;;;;-53
2021/09/11 04:46:11;;;;;;;2.71;2.51;;;;;;;21.12;72.96;100570.81;;;;-52
2021/09/11 04:49:11;;;;;;;2.79;2.59;;;;;;;21.11;72.91;100572.70;;;;-58
2021/09/11 04:52:11;;;;;;;2.94;2.74;;;;;;;21.12;72.94;100574.08;;;;-57
2021/09/11 04:55:11;;;;;;;2.59;2.39;;;;;;;21.11;72.93;100569.69;;;;-58
2021/09/11 04:58:11;;;;;;;2.67;2.47;;;;;;;21.11;72.98;100567.16;;;;-58
2021/09/11 05:01:11;;;;;;;2.82;2.62;;;;;;;21.11;73.00;100566.91;;;;-57
2021/09/11 05:04:11;;;;;;;2.69;2.49;;;;;;;21.11;72.89;100567.48;;;;-57
2021/09/11 05:07:11;;;;;;;2.80;2.60;;;;;;;21.11;72.92;100569.29;;;;-57
2021/09/11 05:10:11;;;;;;;2.78;2.58;;;;;;;21.11;72.91;100573.69;;;;-58
2021/09/11 05:13:11;;;;;;;2.72;2.52;;;;;;;21.10;72.95;100573.58;;;;-58
2021/09/11 05:16:11;;;;;;;2.68;2.48;;;;;;;21.10;72.90;100573.74;;;;-52
2021/09/11 05:19:11;;;;;;;2.64;2.44;;;;;;;21.10;72.96;100577.81;;;;-52
2021/09/11 05:22:11;;;;;;;2.58;2.38;;;;;;;21.11;72.95;100582.48;;;;-52
2021/09/11 05:25:13;;;;;;;2.69;2.49;;;;;;;21.11;72.97;100586.23;;;;-52
2021/09/11 05:28:11;;;;;;;2.65;2.45;;;;;;;21.10;72.97;100585.40;;;;-52
2021/09/11 05:31:10;;;;;;;2.73;2.53;;;;;;;21.10;72.89;100588.50;;;;-52
2021/09/11 05:34:11;;;;;;;2.63;2.43;;;;;;;21.10;72.95;100588.25;;;;-52
2021/09/11 05:37:11;;;;;;;2.79;2.59;;;;;;;21.10;72.94;100592.90;;;;-52
2021/09/11 05:40:10;;;;;;;2.51;2.31;;;;;;;21.09;72.98;100591.77;;;;-54
2021/09/11 05:43:11;;;;;;;2.71;2.51;;;;;;;21.09;72.98;100595.34;;;;-54
2021/09/11 05:46:11;;;;;;;2.65;2.45;;;;;;;21.09;72.98;100592.34;;;;-54
2021/09/11 05:49:11;;;;;;;2.81;2.61;;;;;;;21.09;72.96;100595.02;;;;-52
2021/09/11 05:52:11;;;;;;;2.71;2.51;;;;;;;21.09;72.88;100595.44;;;;-53
2021/09/11 05:55:11;;;;;;;3.11;2.57;;;;;;;21.10;72.92;100595.67;;;;-52
2021/09/11 05:58:11;;;;;;;2.77;2.52;;;;;;;21.09;72.92;100596.58;;;;-53
2021/09/11 06:01:11;;;;;;;2.70;2.50;;;;;;;21.10;72.98;100605.77;;;;-53
2021/09/11 06:04:11;;;;;;;2.73;2.53;;;;;;;21.09;72.85;100612.30;;;;-52
2021/09/11 06:07:11;;;;;;;2.75;2.55;;;;;;;21.08;72.88;100605.19;;;;-53
2021/09/11 06:10:11;;;;;;;2.74;2.54;;;;;;;21.09;72.96;100607.57;;;;-53
2021/09/11 06:13:11;;;;;;;2.75;2.55;;;;;;;21.09;72.91;100607.74;;;;-52
2021/09/11 06:16:10;;;;;;;2.49;2.29;;;;;;;21.09;72.88;100610.75;;;;-53
2021/09/11 06:19:11;;;;;;;2.66;2.46;;;;;;;21.09;72.92;100611.25;;;;-53
2021/09/11 06:22:13;;;;;;;3.14;2.79;;;;;;;21.08;72.98;100614.81;;;;-52
2021/09/11 06:25:11;;;;;;;2.84;2.64;;;;;;;21.08;72.92;100617.58;;;;-52
2021/09/11 06:28:11;;;;;;;2.72;2.52;;;;;;;21.08;72.89;100620.13;;;;-53
2021/09/11 06:31:10;;;;;;;2.55;2.35;;;;;;;21.08;72.92;100617.85;;;;-52
2021/09/11 06:34:11;;;;;;;2.69;2.49;;;;;;;21.08;72.95;100613.75;;;;-52
2021/09/11 06:37:11;;;;;;;2.83;2.63;;;;;;;21.08;72.96;100611.50;;;;-52
2021/09/11 06:40:10;;;;;;;2.60;2.40;;;;;;;21.08;72.89;100608.12;;;;-52
2021/09/11 06:43:11;;;;;;;2.53;2.33;;;;;;;21.08;72.92;100605.86;;;;-52
2021/09/11 06:46:10;;;;;;;2.65;2.45;;;;;;;21.08;72.88;100609.77;;;;-58
2021/09/11 06:49:11;;;;;;;2.59;2.39;;;;;;;21.08;72.96;100611.31;;;;-53
2021/09/11 06:52:11;;;;;;;2.64;2.44;;;;;;;21.07;72.93;100613.59;;;;-52
2021/09/11 06:55:10;;;;;;;2.55;2.35;;;;;;;21.07;72.98;100612.62;;;;-53
2021/09/11 06:58:11;;;;;;;2.57;2.37;;;;;;;21.07;72.95;100615.15;;;;-53
2021/09/11 07:01:10;;;;;;;2.59;2.39;;;;;;;21.08;72.91;100622.64;;;;-53
2021/09/11 07:04:11;;;;;;;2.53;2.33;;;;;;;21.07;72.97;100621.19;;;;-52
2021/09/11 07:07:11;;;;;;;2.63;2.43;;;;;;;21.07;72.91;100615.88;;;;-58
2021/09/11 07:10:11;;;;;;;2.69;2.49;;;;;;;21.07;72.86;100611.81;;;;-58
2021/09/11 07:13:11;;;;;;;2.73;2.53;;;;;;;21.07;72.93;100615.56;;;;-57
2021/09/11 07:16:10;;;;;;;2.70;2.50;;;;;;;21.07;72.89;100616.46;;;;-58
2021/09/11 07:19:11;;;;;;;2.51;2.31;;;;;;;21.06;72.87;100618.83;;;;-53
2021/09/11 07:22:11;;;;;;;2.59;2.39;;;;;;;21.06;72.89;100619.53;;;;-53
2021/09/11 07:25:11;;;;;;;2.46;2.26;;;;;;;21.07;72.87;100616.46;;;;-53
2021/09/11 07:28:11;;;;;;;2.71;2.51;;;;;;;21.06;72.85;100622.30;;;;-52
2021/09/11 07:31:10;;;;;;;7.65;2.60;;;;;;;21.07;73.18;100624.19;;;;-52
2021/09/11 07:34:11;;;;;;;3.49;2.33;;;;;;;21.07;73.09;100627.28;;;;-52
2021/09/11 07:37:11;;;;;;;2.63;2.26;;;;;;;21.07;72.98;100629.50;;;;-52
2021/09/11 07:40:10;;;;;;;2.81;2.52;;;;;;;21.07;72.95;100633.90;;;;-52
2021/09/11 07:43:12;;;;;;;3.67;2.39;;;;;;;21.07;72.88;100634.71;;;;-51
2021/09/11 07:46:10;;;;;;;2.68;2.46;;;;;;;21.06;72.94;100638.77;;;;-52
2021/09/11 07:49:11;;;;;;;5.45;2.96;;;;;;;21.08;73.98;100642.35;;;;-60
2021/09/11 07:52:11;;;;;;;8.17;3.89;;;;;;;21.13;74.59;100643.12;;;;-59
2021/09/11 07:55:10;;;;;;;5.67;3.91;;;;;;;21.13;74.46;100649.16;;;;-56
2021/09/11 07:58:11;;;;;;;4.91;4.30;;;;;;;21.15;74.98;100648.02;;;;-62
2021/09/11 08:01:11;;;;;;;8.37;4.48;;;;;;;21.16;75.12;100655.91;;;;-58
2021/09/11 08:04:11;;;;;;;6.61;4.37;;;;;;;21.17;75.01;100656.09;;;;-59
2021/09/11 08:07:13;;;;;;;7.05;4.40;;;;;;;21.18;74.71;100660.39;;;;-53
2021/09/11 08:10:10;;;;;;;4.85;4.13;;;;;;;21.19;74.71;100662.45;;;;-49
2021/09/11 08:13:15;;;;;;;8.07;4.37;;;;;;;21.20;74.59;100662.44;;;;-50
2021/09/11 08:16:11;;;;;;;7.64;4.04;;;;;;;21.22;74.58;100663.99;;;;-49
2021/09/11 08:19:14;;;;;;;5.17;4.34;;;;;;;21.23;74.48;100666.12;;;;-48
2021/09/11 08:22:11;;;;;;;5.83;4.15;;;;;;;21.25;74.70;100669.38;;;;-57
2021/09/11 08:25:10;;;;;;;7.33;4.33;;;;;;;21.25;74.21;100669.20;;;;-58
2021/09/11 08:28:11;;;;;;;6.41;4.01;;;;;;;21.24;74.21;100673.29;;;;-57
2021/09/11 08:31:13;;;;;;;4.40;3.97;;;;;;;21.24;74.22;100673.95;;;;-58
2021/09/11 08:34:11;;;;;;;9.59;4.23;;;;;;;21.24;74.28;100674.27;;;;-57
2021/09/11 08:37:11;;;;;;;4.54;3.81;;;;;;;21.23;74.06;100672.81;;;;-58
2021/09/11 08:40:10;;;;;;;4.81;3.77;;;;;;;21.23;74.08;100670.61;;;;-57
2021/09/11 08:43:11;;;;;;;4.37;3.73;;;;;;;21.23;73.99;100667.16;;;;-58
2021/09/11 08:46:11;;;;;;;5.92;3.81;;;;;;;21.23;73.96;100669.61;;;;-58
2021/09/11 08:49:11;;;;;;;4.60;3.84;;;;;;;21.23;73.95;100669.88;;;;-56
2021/09/11 08:52:12;;;;;;;7.13;3.68;;;;;;;21.22;73.87;100668.39;;;;-55
2021/09/11 08:55:11;;;;;;;5.19;3.78;;;;;;;21.23;73.82;100672.14;;;;-56
2021/09/11 08:58:11;;;;;;;4.33;3.77;;;;;;;21.23;73.77;100673.03;;;;-63
2021/09/11 09:01:11;;;;;;;4.55;3.72;;;;;;;21.22;73.79;100668.55;;;;-62
2021/09/11 09:04:10;;;;;;;4.12;3.57;;;;;;;21.23;73.73;100670.09;;;;-62
2021/09/11 09:07:11;;;;;;;3.85;3.47;;;;;;;21.23;73.73;100670.02;;;;-62
2021/09/11 09:10:11;;;;;;;4.47;3.73;;;;;;;21.22;73.67;100669.20;;;;-56
2021/09/11 09:13:11;;;;;;;4.05;3.65;;;;;;;21.23;73.65;100667.16;;;;-55
2021/09/11 09:16:10;;;;;;;4.49;3.73;;;;;;;21.22;73.60;100666.77;;;;-64
2021/09/11 09:19:11;;;;;;;4.07;3.60;;;;;;;21.23;73.62;100671.08;;;;-64
2021/09/11 09:22:11;;;;;;;3.98;3.63;;;;;;;21.22;73.52;100669.70;;;;-64
2021/09/11 09:25:10;;;;;;;4.24;3.59;;;;;;;21.23;73.55;100671.81;;;;-64
2021/09/11 09:28:11;;;;;;;4.59;3.69;;;;;;;21.23;73.58;100667.81;;;;-65
2021/09/11 09:31:10;;;;;;;3.82;3.30;;;;;;;21.23;73.48;100668.39;;;;-64
2021/09/11 09:34:11;;;;;;;3.87;3.50;;;;;;;21.23;73.46;100658.69;;;;-64
2021/09/11 09:37:11;;;;;;;4.61;3.48;;;;;;;21.22;73.47;100657.31;;;;-65
2021/09/11 09:40:10;;;;;;;3.87;3.34;;;;;;;21.22;73.40;100662.85;;;;-65
2021/09/11 09:43:11;;;;;;;3.92;3.55;;;;;;;21.22;73.38;100657.47;;;;-64
2021/09/11 09:46:11;;;;;;;4.57;3.73;;;;;;;21.23;73.42;100658.52;;;;-64
2021/09/11 09:49:11;;;;;;;4.21;3.49;;;;;;;21.22;73.47;100658.70;;;;-64
2021/09/11 09:52:11;;;;;;;4.54;3.46;;;;;;;21.22;73.39;100662.28;;;;-57
2021/09/11 09:55:10;;;;;;;4.41;3.45;;;;;;;21.22;73.38;100663.34;;;;-57
2021/09/11 09:58:11;;;;;;;3.53;3.23;;;;;;;21.22;73.33;100662.45;;;;-58
2021/09/11 10:01:25;;;;;;;9.45;4.59;;;;;;;21.23;73.38;100664.23;;;;-47
2021/09/11 10:04:11;;;;;;;5.60;3.43;;;;;;;21.24;73.61;100652.67;;;;-47
2021/09/11 10:07:11;;;;;;;4.28;3.46;;;;;;;21.24;73.59;100650.30;;;;-47
2021/09/11 10:10:17;;;;;;;3.54;3.22;;;;;;;21.28;73.53;100648.45;;;;-46
2021/09/11 10:13:11;;;;;;;4.83;3.47;;;;;;;21.30;73.58;100649.02;;;;-50
2021/09/11 10:16:11;;;;;;;5.89;3.46;;;;;;;21.31;73.52;100645.25;;;;-48
2021/09/11 10:19:10;;;;;;;4.08;3.30;;;;;;;21.33;73.58;100643.80;;;;-50
2021/09/11 10:22:11;;;;;;;5.27;3.26;;;;;;;21.34;73.69;100647.06;;;;-50
2021/09/11 10:25:11;;;;;;;4.44;3.05;;;;;;;21.35;73.64;100643.80;;;;-50
2021/09/11 10:28:10;;;;;;;4.73;3.22;;;;;;;21.36;73.62;100640.80;;;;-51
2021/09/11 10:31:12;;;;;;;4.19;3.13;;;;;;;21.36;73.52;100643.48;;;;-51
2021/09/11 10:34:10;;;;;;;4.16;3.28;;;;;;;21.38;73.58;100642.03;;;;-51
2021/09/11 10:37:10;;;;;;;3.80;3.15;;;;;;;21.39;73.66;100648.78;;;;-59
2021/09/11 10:40:10;;;;;;;3.66;3.35;;;;;;;21.39;73.58;100641.47;;;;-60
2021/09/11 10:43:11;;;;;;;3.81;3.31;;;;;;;21.41;73.53;100637.04;;;;-61
2021/09/11 10:46:11;;;;;;;4.89;3.50;;;;;;;21.42;73.64;100630.70;;;;-62
2021/09/11 10:49:28;;;;;;;7.43;4.61;;;;;;;21.42;73.48;100630.23;;;;-48
2021/09/11 10:52:10;;;;;;;4.17;3.23;;;;;;;21.44;73.48;100633.84;;;;-48
2021/09/11 10:55:23;;;;;;;5.47;3.77;;;;;;;21.44;73.58;100633.34;;;;-51
2021/09/11 10:58:10;;;;;;;4.27;3.43;;;;;;;21.44;73.54;100627.38;;;;-52
2021/09/11 11:01:11;;;;;;;3.82;3.31;;;;;;;21.46;73.63;100622.72;;;;-51
2021/09/11 11:04:10;;;;;;;3.73;3.31;;;;;;;21.44;73.44;100620.53;;;;-50
2021/09/11 11:07:11;;;;;;;3.63;3.29;;;;;;;21.44;73.47;100610.75;;;;-51
2021/09/11 11:10:10;;;;;;;3.59;3.10;;;;;;;21.44;73.57;100607.16;;;;-51
2021/09/11 11:13:10;;;;;;;4.27;3.12;;;;;;;21.45;73.59;100607.24;;;;-56
2021/09/11 11:16:20;;;;;;;6.41;4.30;;;;;;;21.44;73.54;100602.44;;;;-56
2021/09/11 11:19:10;;;;;;;3.95;3.16;;;;;;;21.45;73.55;100598.99;;;;-55
2021/09/11 11:22:11;;;;;;;7.32;3.49;;;;;;;21.48;73.42;100594.51;;;;-51
2021/09/11 11:25:10;;;;;;;3.91;3.29;;;;;;;21.49;73.42;100600.71;;;;-51
2021/09/11 11:28:11;;;;;;;4.16;3.02;;;;;;;21.50;73.45;100606.44;;;;-50
2021/09/11 11:31:10;;;;;;;4.85;3.34;;;;;;;21.51;73.46;100616.37;;;;-51
2021/09/11 11:34:10;;;;;;;4.23;3.25;;;;;;;21.52;73.43;100614.27;;;;-52
2021/09/11 11:37:11;;;;;;;4.51;3.20;;;;;;;21.54;73.48;100615.95;;;;-52
2021/09/11 11:40:10;;;;;;;5.15;3.29;;;;;;;21.54;73.37;100618.48;;;;-50
2021/09/11 11:43:11;;;;;;;3.63;2.97;;;;;;;21.53;73.41;100603.33;;;;-53
2021/09/11 11:46:11;;;;;;;4.77;3.13;;;;;;;21.52;73.39;100602.77;;;;-52
2021/09/11 11:49:10;;;;;;;3.42;3.08;;;;;;;21.51;73.36;100602.83;;;;-50
2021/09/11 11:52:10;;;;;;;4.53;3.03;;;;;;;21.52;73.44;100596.55;;;;-50
2021/09/11 11:55:11;;;;;;;4.55;3.07;;;;;;;21.51;73.35;100596.39;;;;-50
2021/09/11 11:58:10;;;;;;;3.33;3.00;;;;;;;21.51;73.28;100585.64;;;;-53
2021/09/11 12:01:11;;;;;;;3.28;2.98;;;;;;;21.51;73.32;100578.54;;;;-52
2021/09/11 12:04:10;;;;;;;3.43;2.99;;;;;;;21.52;73.23;100571.27;;;;-52
2021/09/11 12:07:11;;;;;;;3.25;2.95;;;;;;;21.51;73.20;100567.45;;;;-53
2021/09/11 12:10:10;;;;;;;3.46;3.12;;;;;;;21.51;73.16;100563.70;;;;-53
2021/09/11 12:13:11;;;;;;;4.11;3.19;;;;;;;21.51;73.17;100560.35;;;;-52
2021/09/11 12:16:10;;;;;;;3.38;3.08;;;;;;;21.51;73.10;100553.19;;;;-53
2021/09/11 12:19:11;;;;;;;3.13;2.83;;;;;;;21.51;73.10;100551.80;;;;-52
2021/09/11 12:22:10;;;;;;;4.05;2.99;;;;;;;21.50;73.09;100559.47;;;;-52
2021/09/11 12:25:10;;;;;;;3.40;3.10;;;;;;;21.50;73.08;100555.06;;;;-50
2021/09/11 12:28:10;;;;;;;3.47;3.03;;;;;;;21.50;73.04;100553.03;;;;-50
2021/09/11 12:31:10;;;;;;;3.83;2.90;;;;;;;21.50;73.02;100549.68;;;;-50
2021/09/11 12:34:11;;;;;;;3.24;2.94;;;;;;;21.51;72.99;100551.23;;;;-50
2021/09/11 12:37:10;;;;;;;4.22;2.91;;;;;;;21.51;72.98;100550.89;;;;-50
2021/09/11 12:40:10;;;;;;;3.65;2.67;;;;;;;21.51;73.00;100550.41;;;;-50
2021/09/11 12:43:11;;;;;;;3.49;2.77;;;;;;;21.51;73.00;100549.76;;;;-50
2021/09/11 12:46:11;;;;;;;3.01;2.69;;;;;;;21.51;72.92;100544.87;;;;-63
2021/09/11 12:49:10;;;;;;;3.97;2.77;;;;;;;21.51;72.95;100541.28;;;;-62
2021/09/11 12:52:11;;;;;;;3.18;2.81;;;;;;;21.50;72.93;100537.05;;;;-49
2021/09/11 12:55:10;;;;;;;15.41;2.91;;;;;;;21.51;73.10;100534.92;;;;-57
2021/09/11 12:58:11;;;;;;;4.55;2.85;;;;;;;21.52;72.99;100537.75;;;;-53
2021/09/11 13:01:10;;;;;;;5.17;2.87;;;;;;;21.54;73.04;100535.23;;;;-54
2021/09/11 13:04:10;;;;;;;3.88;3.01;;;;;;;21.53;73.15;100536.05;;;;-51
2021/09/11 13:07:11;;;;;;;3.15;2.77;;;;;;;21.55;73.12;100534.09;;;;-51
2021/09/11 13:10:10;;;;;;;4.18;2.75;;;;;;;21.56;73.16;100527.64;;;;-51
2021/09/11 13:13:10;;;;;;;3.05;2.74;;;;;;;21.57;73.20;100527.33;;;;-49
2021/09/11 13:16:11;;;;;;;7.57;2.87;;;;;;;21.58;73.28;100522.69;;;;-50
2021/09/11 13:19:13;;;;;;;8.87;3.36;;;;;;;21.59;73.26;100520.80;;;;-54
2021/09/11 13:22:11;;;;;;;3.93;2.87;;;;;;;21.59;73.27;100517.29;;;;-52
2021/09/11 13:25:10;;;;;;;5.69;2.72;;;;;;;21.61;73.33;100512.64;;;;-61
2021/09/11 13:28:11;;;;;;;5.33;2.97;;;;;;;21.62;73.28;100514.69;;;;-61
2021/09/11 13:31:10;;;;;;;7.77;2.67;;;;;;;21.63;73.24;100513.95;;;;-58
2021/09/11 13:34:10;;;;;;;3.93;2.65;;;;;;;21.64;73.30;100510.18;;;;-58
2021/09/11 13:37:10;;;;;;;6.29;2.75;;;;;;;21.64;73.22;100508.88;;;;-58
2021/09/11 13:40:12;;;;;;;5.45;2.83;;;;;;;21.65;73.28;100508.40;;;;-55
2021/09/11 13:43:10;;;;;;;3.38;2.79;;;;;;;21.66;73.27;100509.20;;;;-53
2021/09/11 13:46:13;;;;;;;5.49;2.63;;;;;;;21.66;73.34;100506.17;;;;-51
2021/09/11 13:49:10;;;;;;;3.31;2.63;;;;;;;21.66;73.28;100507.24;;;;-58
2021/09/11 13:52:10;;;;;;;5.05;2.70;;;;;;;21.67;73.27;100499.34;;;;-51
2021/09/11 13:55:10;;;;;;;4.07;2.67;;;;;;;21.67;73.24;100499.58;;;;-51
2021/09/11 13:58:10;;;;;;;4.15;2.79;;;;;;;21.68;73.23;100497.60;;;;-55
2021/09/11 14:01:11;;;;;;;4.12;2.75;;;;;;;21.69;73.23;100505.20;;;;-50
2021/09/11 14:04:10;;;;;;;4.53;2.65;;;;;;;21.69;73.12;100510.34;;;;-51
2021/09/11 14:07:11;;;;;;;4.33;2.77;;;;;;;21.67;73.08;100511.81;;;;-50
2021/09/11 14:10:10;;;;;;;6.51;2.75;;;;;;;21.67;73.28;100513.29;;;;-55
2021/09/11 14:13:10;;;;;;;4.92;2.88;;;;;;;21.67;73.22;100517.94;;;;-51
2021/09/11 14:16:11;;;;;;;4.61;2.69;;;;;;;21.67;73.21;100521.69;;;;-52
2021/09/11 14:19:10;;;;;;;3.99;2.71;;;;;;;21.67;73.25;100524.13;;;;-55
2021/09/11 14:22:11;;;;;;;4.51;2.94;;;;;;;21.68;73.21;100530.23;;;;-54
2021/09/11 14:25:10;;;;;;;3.49;2.59;;;;;;;21.68;73.26;100539.45;;;;-55
2021/09/11 14:28:11;;;;;;;4.57;2.74;;;;;;;21.66;73.22;100543.03;;;;-58
2021/09/11 14:31:11;;;;;;;3.07;2.71;;;;;;;21.68;73.28;100549.41;;;;-49
2021/09/11 14:34:10;;;;;;;4.62;2.75;;;;;;;21.70;73.26;100550.70;;;;-49
2021/09/11 14:37:10;;;;;;;6.35;2.66;;;;;;;21.70;73.14;100549.39;;;;-56
2021/09/11 14:40:10;;;;;;;4.13;2.52;;;;;;;21.72;73.32;100552.26;;;;-50
2021/09/11 14:43:10;;;;;;;3.84;2.47;;;;;;;21.72;73.20;100554.45;;;;-53
2021/09/11 14:46:10;;;;;;;3.31;2.55;;;;;;;21.72;73.22;100545.48;;;;-55
2021/09/11 14:49:12;;;;;;;3.73;2.38;;;;;;;21.73;73.14;100549.33;;;;-57
2021/09/11 14:52:10;;;;;;;3.25;2.50;;;;;;;21.73;73.22;100547.37;;;;-62
2021/09/11 14:55:10;;;;;;;3.54;2.63;;;;;;;21.74;73.19;100549.48;;;;-61
2021/09/11 14:58:10;;;;;;;3.87;2.57;;;;;;;21.74;73.27;100547.69;;;;-61
2021/09/11 15:01:11;;;;;;;3.13;2.49;;;;;;;21.75;73.18;100547.05;;;;-56
2021/09/11 15:04:10;;;;;;;2.57;2.37;;;;;;;21.75;73.17;100547.86;;;;-57
2021/09/11 15:07:10;;;;;;;3.10;2.60;;;;;;;21.75;73.21;100549.08;;;;-61
2021/09/11 15:10:10;;;;;;;5.01;2.69;;;;;;;21.75;73.29;100549.32;;;;-57
2021/09/11 15:13:10;;;;;;;2.83;2.56;;;;;;;21.76;73.16;100556.48;;;;-59
2021/09/11 15:16:10;;;;;;;2.87;2.59;;;;;;;21.76;73.17;100555.59;;;;-66
2021/09/11 15:19:11;;;;;;;4.56;2.73;;;;;;;21.75;73.18;100556.66;;;;-61
2021/09/11 15:22:16;;;;;;;2.89;2.29;;;;;;;21.76;73.31;100563.42;;;;-60
2021/09/11 15:25:11;;;;;;;3.43;2.73;;;;;;;21.76;73.32;100569.05;;;;-59
2021/09/11 15:28:10;;;;;;;3.95;2.48;;;;;;;21.76;73.19;100572.80;;;;-59
2021/09/11 15:31:10;;;;;;;3.67;2.56;;;;;;;21.76;73.17;100573.94;;;;-62
2021/09/11 15:34:10;;;;;;;5.46;2.71;;;;;;;21.76;73.38;100576.64;;;;-62
2021/09/11 15:37:10;;;;;;;4.21;2.42;;;;;;;21.76;73.35;100579.08;;;;-59
2021/09/11 15:40:11;;;;;;;4.19;2.44;;;;;;;21.77;73.34;100582.83;;;;-51
2021/09/11 15:43:11;;;;;;;5.38;2.50;;;;;;;21.77;73.27;100583.32;;;;-52
2021/09/11 15:46:12;;;;;;;3.60;2.36;;;;;;;21.77;73.30;100576.48;;;;-52
2021/09/11 15:49:10;;;;;;;4.43;2.63;;;;;;;21.78;73.17;100578.68;;;;-53
2021/09/11 15:52:10;;;;;;;3.67;2.40;;;;;;;21.78;73.26;100576.64;;;;-52
2021/09/11 15:55:10;;;;;;;3.48;2.55;;;;;;;21.77;73.21;100572.97;;;;-54
2021/09/11 15:58:10;;;;;;;5.09;2.53;;;;;;;21.78;73.16;100572.80;;;;-53
2021/09/11 16:01:11;;;;;;;5.67;2.59;;;;;;;21.78;73.15;100572.23;;;;-58
2021/09/11 16:04:10;;;;;;;3.11;2.45;;;;;;;21.79;73.23;100570.27;;;;-52
2021/09/11 16:07:10;;;;;;;3.59;2.52;;;;;;;21.79;73.10;100566.34;;;;-57
2021/09/11 16:10:10;;;;;;;4.51;2.61;;;;;;;21.78;73.19;100563.02;;;;-53
2021/09/11 16:13:10;;;;;;;5.41;2.51;;;;;;;21.78;73.24;100564.23;;;;-50
2021/09/11 16:16:10;;;;;;;3.03;2.41;;;;;;;21.79;73.12;100560.90;;;;-60
2021/09/11 16:19:10;;;;;;;3.36;2.39;;;;;;;21.79;73.09;100558.13;;;;-52
2021/09/11 16:22:12;;;;;;;4.26;2.47;;;;;;;21.80;73.19;100554.78;;;;-51
2021/09/11 16:25:12;;;;;;;3.03;2.50;;;;;;;21.79;73.15;100546.47;;;;-50
2021/09/11 16:28:10;;;;;;;4.08;2.28;;;;;;;21.80;73.13;100541.89;;;;-52
2021/09/11 16:31:11;;;;;;;4.21;2.29;;;;;;;21.80;73.09;100543.34;;;;-52
2021/09/11 16:34:10;;;;;;;3.01;2.35;;;;;;;21.80;73.08;100543.19;;;;-52
2021/09/11 16:37:10;;;;;;;3.27;2.41;;;;;;;21.80;73.12;100543.27;;;;-53
2021/09/11 16:40:10;;;;;;;2.91;2.40;;;;;;;21.79;73.23;100544.83;;;;-50
2021/09/11 16:43:10;;;;;;;2.37;2.17;;;;;;;21.79;73.22;100548.17;;;;-55